createdAt,value
2023-01-27T00:00:01.714Z,21.26
2023-01-27T00:02:03.008Z,21.21
2023-01-27T00:04:04.864Z,21.19
2023-01-27T00:06:06.518Z,21.18
2023-01-27T00:08:07.939Z,21.15
2023-01-27T00:10:09.241Z,21.12
2023-01-27T00:12:29.179Z,21.10
2023-01-27T00:14:30.546Z,21.07
2023-01-27T00:16:31.854Z,21.06
2023-01-27T00:18:33.182Z,21.04
2023-01-27T00:20:52.938Z,21.01
2023-01-27T00:23:12.895Z,21.00
2023-01-27T00:25:14.252Z,20.98
2023-01-27T00:27:15.593Z,20.98
2023-01-27T00:29:16.896Z,20.97
2023-01-27T00:31:36.996Z,20.96
2023-01-27T00:33:38.378Z,20.94
2023-01-27T00:35:39.677Z,20.93
2023-01-27T00:37:41.011Z,20.94
2023-01-27T00:39:42.294Z,20.98
2023-01-27T00:41:43.624Z,21.03
2023-01-27T00:43:44.918Z,21.09
2023-01-27T00:45:49.376Z,21.11
2023-01-27T00:47:50.870Z,21.14
2023-01-27T00:49:53.143Z,21.16
2023-01-27T00:51:55.113Z,21.19
2023-01-27T00:53:56.587Z,21.21
2023-01-27T00:56:00.895Z,21.26
2023-01-27T00:58:02.211Z,21.28
2023-01-27T01:00:03.665Z,21.28
2023-01-27T01:02:05.070Z,21.30
2023-01-27T01:04:06.490Z,21.33
2023-01-27T01:06:07.939Z,21.36
2023-01-27T01:08:09.249Z,21.36
2023-01-27T01:10:10.786Z,21.34
2023-01-27T01:12:12.308Z,21.35
2023-01-27T01:14:13.649Z,21.40
2023-01-27T01:16:15.006Z,21.36
2023-01-27T01:18:16.338Z,21.32
2023-01-27T01:20:17.673Z,21.25
2023-01-27T01:22:19.009Z,21.20
2023-01-27T01:24:20.417Z,21.16
2023-01-27T01:26:21.776Z,21.14
2023-01-27T01:28:23.118Z,21.14
2023-01-27T01:30:26.369Z,21.09
2023-01-27T01:32:27.726Z,21.07
2023-01-27T01:34:29.030Z,21.04
2023-01-27T01:36:30.307Z,21.04
2023-01-27T01:38:31.633Z,21.07
2023-01-27T01:40:32.925Z,21.05
2023-01-27T01:42:34.259Z,21.03
2023-01-27T01:44:37.073Z,21.04
2023-01-27T01:46:38.400Z,21.03
2023-01-27T01:48:40.969Z,21.04
2023-01-27T01:50:42.271Z,21.02
2023-01-27T01:52:43.614Z,21.03
2023-01-27T01:54:44.951Z,21.05
2023-01-27T01:56:46.290Z,21.10
2023-01-27T01:58:47.634Z,21.13
2023-01-27T02:00:49.096Z,21.18
2023-01-27T02:02:50.412Z,21.26
2023-01-27T02:04:51.746Z,21.31
2023-01-27T02:06:53.043Z,21.36
2023-01-27T02:08:54.342Z,21.40
2023-01-27T02:10:55.668Z,21.43
2023-01-27T02:12:56.968Z,21.45
2023-01-27T02:14:58.266Z,21.43
2023-01-27T02:16:59.602Z,21.41
2023-01-27T02:19:00.913Z,21.40
2023-01-27T02:21:02.266Z,21.40
2023-01-27T02:23:03.731Z,20.79
2023-01-27T02:25:05.041Z,21.38
2023-01-27T02:27:06.331Z,21.37
2023-01-27T02:29:07.689Z,21.37
2023-01-27T02:31:09.088Z,21.34
2023-01-27T02:33:10.982Z,21.33
2023-01-27T02:35:12.621Z,21.28
2023-01-27T02:37:14.137Z,21.23
2023-01-27T02:39:15.452Z,21.21
2023-01-27T02:41:16.801Z,21.14
2023-01-27T02:43:18.183Z,21.05
2023-01-27T02:45:19.490Z,21.00
2023-01-27T02:47:20.866Z,20.98
2023-01-27T02:49:22.166Z,20.96
2023-01-27T02:51:23.506Z,20.94
2023-01-27T02:53:24.881Z,20.91
2023-01-27T02:55:26.706Z,20.93
2023-01-27T02:57:28.016Z,20.96
2023-01-27T02:59:29.351Z,20.95
2023-01-27T03:01:32.626Z,20.94
2023-01-27T03:03:34.110Z,20.93
2023-01-27T03:05:35.442Z,20.93
2023-01-27T03:07:36.766Z,20.94
2023-01-27T03:09:38.059Z,20.94
2023-01-27T03:11:57.796Z,20.98
2023-01-27T03:13:59.101Z,21.05
2023-01-27T03:16:19.061Z,21.08
2023-01-27T03:18:21.293Z,21.11
2023-01-27T03:20:22.629Z,21.18
2023-01-27T03:22:24.016Z,21.24
2023-01-27T03:24:25.341Z,21.29
2023-01-27T03:26:26.704Z,21.37
2023-01-27T03:28:28.037Z,21.40
2023-01-27T03:30:29.347Z,21.42
2023-01-27T03:32:30.710Z,21.41
2023-01-27T03:34:32.005Z,21.44
2023-01-27T03:36:52.076Z,21.43
2023-01-27T03:39:11.980Z,21.41
2023-01-27T03:41:31.885Z,21.51
2023-01-27T03:43:51.779Z,21.59
2023-01-27T03:46:11.636Z,21.38
2023-01-27T03:48:13.007Z,21.20
2023-01-27T03:50:19.249Z,21.08
2023-01-27T03:52:20.616Z,21.14
2023-01-27T03:54:21.953Z,20.85
2023-01-27T03:56:23.288Z,20.76
2023-01-27T03:58:24.583Z,20.71
2023-01-27T04:00:25.914Z,20.70
2023-01-27T04:02:45.783Z,20.50
2023-01-27T04:05:05.872Z,20.43
2023-01-27T04:07:07.194Z,20.40
2023-01-27T04:09:08.570Z,20.39
2023-01-27T04:11:30.860Z,20.37
2023-01-27T04:13:33.113Z,20.35
2023-01-27T04:15:34.509Z,20.36
2023-01-27T04:17:38.994Z,20.35
2023-01-27T04:19:40.378Z,20.36
2023-01-27T04:21:41.687Z,20.40
2023-01-27T04:23:43.018Z,20.47
2023-01-27T04:25:44.310Z,20.52
2023-01-27T04:27:45.633Z,19.14
2023-01-27T04:29:47.015Z,20.66
2023-01-27T04:31:48.581Z,20.76
2023-01-27T04:33:49.899Z,20.86
2023-01-27T04:35:51.237Z,20.93
2023-01-27T04:37:52.587Z,21.02
2023-01-27T04:39:53.936Z,21.10
2023-01-27T04:41:55.268Z,21.11
2023-01-27T04:43:56.584Z,21.14
2023-01-27T04:45:57.996Z,21.17
2023-01-27T04:47:59.301Z,21.21
2023-01-27T04:50:00.662Z,21.22
2023-01-27T04:52:02.233Z,21.24
2023-01-27T04:54:06.734Z,21.24
2023-01-27T04:56:08.088Z,21.22
2023-01-27T04:58:09.442Z,21.20
2023-01-27T05:00:10.738Z,21.20
2023-01-27T05:02:12.110Z,21.16
2023-01-27T05:04:13.485Z,21.11
2023-01-27T05:06:14.848Z,21.02
2023-01-27T05:08:16.275Z,20.93
2023-01-27T05:10:17.644Z,20.83
2023-01-27T05:12:18.943Z,20.74
2023-01-27T05:14:21.338Z,20.65
2023-01-27T05:16:23.656Z,20.56
2023-01-27T05:18:25.071Z,20.51
2023-01-27T05:20:26.401Z,20.46
2023-01-27T05:22:27.754Z,20.42
2023-01-27T05:24:29.235Z,20.38
2023-01-27T05:26:30.554Z,20.35
2023-01-27T05:28:31.871Z,20.34
2023-01-27T05:30:33.215Z,20.29
2023-01-27T05:32:34.647Z,20.30
2023-01-27T05:34:36.370Z,20.27
2023-01-27T05:36:38.043Z,20.28
2023-01-27T05:38:39.461Z,20.28
2023-01-27T05:40:40.750Z,20.26
2023-01-27T05:42:42.057Z,20.29
2023-01-27T05:44:43.387Z,20.33
2023-01-27T05:46:44.886Z,20.39
2023-01-27T05:48:46.282Z,20.45
2023-01-27T05:50:47.605Z,20.52
2023-01-27T05:52:49.064Z,20.65
2023-01-27T05:54:50.494Z,20.73
2023-01-27T05:56:51.827Z,20.77
2023-01-27T05:58:53.161Z,20.86
2023-01-27T06:00:54.561Z,20.95
2023-01-27T06:02:56.165Z,21.01
2023-01-27T06:04:57.546Z,21.05
2023-01-27T06:06:59.034Z,21.09
2023-01-27T06:09:00.327Z,21.13
2023-01-27T06:11:02.255Z,21.14
2023-01-27T06:13:03.559Z,21.11
2023-01-27T06:15:04.859Z,21.16
2023-01-27T06:17:06.199Z,21.18
2023-01-27T06:19:07.502Z,21.17
2023-01-27T06:21:08.817Z,21.19
2023-01-27T06:23:10.117Z,21.15
2023-01-27T06:25:12.034Z,21.15
2023-01-27T06:27:13.534Z,21.06
2023-01-27T06:29:14.835Z,21.02
2023-01-27T06:31:16.279Z,20.98
2023-01-27T06:33:17.766Z,20.93
2023-01-27T06:35:19.170Z,20.88
2023-01-27T06:37:20.527Z,20.84
2023-01-27T06:39:21.857Z,20.81
2023-01-27T06:41:23.300Z,20.79
2023-01-27T06:43:24.584Z,20.75
2023-01-27T06:45:26.883Z,20.72
2023-01-27T06:47:28.181Z,20.67
2023-01-27T06:49:29.764Z,20.62
2023-01-27T06:51:31.060Z,20.58
2023-01-27T06:53:32.665Z,20.29
2023-01-27T06:55:34.176Z,20.51
2023-01-27T06:57:35.515Z,20.48
2023-01-27T06:59:36.837Z,20.46
2023-01-27T07:01:38.178Z,20.44
2023-01-27T07:03:39.569Z,20.42
2023-01-27T07:05:40.945Z,20.43
2023-01-27T07:07:42.279Z,20.43
2023-01-27T07:09:52.391Z,20.46
2023-01-27T07:11:54.318Z,20.50
2023-01-27T07:13:55.640Z,20.57
2023-01-27T07:15:56.979Z,20.62
2023-01-27T07:17:58.333Z,20.68
2023-01-27T07:19:59.642Z,20.77
2023-01-27T07:22:01.157Z,20.83
2023-01-27T07:24:02.508Z,20.87
2023-01-27T07:26:07.800Z,20.97
2023-01-27T07:28:17.076Z,21.00
2023-01-27T07:30:18.430Z,21.03
2023-01-27T07:32:19.790Z,21.06
2023-01-27T07:34:21.087Z,21.10
2023-01-27T07:36:22.431Z,21.13
2023-01-27T07:38:23.860Z,21.14
2023-01-27T07:40:25.209Z,21.17
2023-01-27T07:42:26.501Z,21.15
2023-01-27T07:44:27.797Z,21.13
2023-01-27T07:46:29.148Z,21.08
2023-01-27T07:48:30.490Z,21.05
2023-01-27T07:50:31.800Z,21.00
2023-01-27T07:52:33.171Z,20.94
2023-01-27T07:54:34.483Z,20.88
2023-01-27T07:56:36.493Z,20.83
2023-01-27T07:58:37.796Z,20.79
2023-01-27T08:00:39.435Z,20.75
2023-01-27T08:02:40.791Z,20.71
2023-01-27T08:04:52.468Z,20.67
2023-01-27T08:06:54.742Z,20.65
2023-01-27T08:08:56.088Z,20.61
2023-01-27T08:10:57.423Z,20.57
2023-01-27T08:12:58.783Z,20.50
2023-01-27T08:15:00.142Z,20.49
2023-01-27T08:17:02.214Z,20.47
2023-01-27T08:19:03.527Z,20.43
2023-01-27T08:21:04.860Z,20.41
2023-01-27T08:23:06.185Z,20.38
2023-01-27T08:25:07.509Z,20.39
2023-01-27T08:27:09.634Z,20.40
2023-01-27T08:29:10.945Z,20.42
2023-01-27T08:31:12.356Z,20.45
2023-01-27T08:33:13.698Z,20.49
2023-01-27T08:35:15.010Z,20.53
2023-01-27T08:37:16.343Z,20.62
2023-01-27T08:39:17.637Z,20.69
2023-01-27T08:41:18.937Z,20.75
2023-01-27T08:43:20.943Z,20.81
2023-01-27T08:45:22.246Z,20.87
2023-01-27T08:47:23.555Z,20.94
2023-01-27T08:49:24.849Z,21.00
2023-01-27T08:51:26.211Z,21.05
2023-01-27T08:53:27.574Z,21.08
2023-01-27T08:55:29.105Z,21.10
2023-01-27T08:57:32.456Z,21.11
2023-01-27T08:59:33.908Z,21.12
2023-01-27T09:01:35.262Z,21.14
2023-01-27T09:03:36.641Z,21.14
2023-01-27T09:05:37.943Z,21.10
2023-01-27T09:07:39.233Z,21.10
2023-01-27T09:09:40.604Z,21.07
2023-01-27T09:11:42.021Z,21.00
2023-01-27T09:13:43.323Z,20.95
2023-01-27T09:15:44.662Z,20.88
2023-01-27T09:17:47.185Z,20.84
2023-01-27T09:19:48.497Z,20.80
2023-01-27T09:21:49.818Z,20.75
2023-01-27T09:23:51.178Z,20.72
2023-01-27T09:25:52.487Z,20.67
2023-01-27T09:27:53.777Z,20.65
2023-01-27T09:29:55.071Z,20.61
2023-01-27T09:31:56.434Z,20.58
2023-01-27T09:33:57.794Z,20.51
2023-01-27T09:35:59.198Z,20.48
2023-01-27T09:38:00.636Z,20.44
2023-01-27T09:40:01.992Z,20.43
2023-01-27T09:42:03.310Z,20.38
2023-01-27T09:44:04.655Z,20.38
2023-01-27T09:46:06.094Z,20.36
2023-01-27T09:48:07.443Z,20.38
2023-01-27T09:50:08.799Z,20.38
2023-01-27T09:52:10.138Z,20.43
2023-01-27T09:54:11.472Z,20.45
2023-01-27T09:56:12.834Z,20.50
2023-01-27T09:58:14.131Z,20.56
2023-01-27T10:00:18.449Z,20.63
2023-01-27T10:02:19.757Z,20.73
2023-01-27T10:04:21.136Z,20.78
2023-01-27T10:06:22.536Z,20.84
2023-01-27T10:08:23.834Z,20.88
2023-01-27T10:10:25.175Z,20.95
2023-01-27T10:12:26.467Z,20.98
2023-01-27T10:14:27.943Z,21.00
2023-01-27T10:16:29.279Z,21.03
2023-01-27T10:18:30.597Z,21.06
2023-01-27T10:20:31.958Z,21.06
2023-01-27T10:22:33.297Z,21.05
2023-01-27T10:24:34.596Z,21.05
2023-01-27T10:26:36.195Z,21.04
2023-01-27T10:28:37.595Z,21.05
2023-01-27T10:30:39.017Z,20.99
2023-01-27T10:32:40.326Z,20.99
2023-01-27T10:34:41.618Z,20.96
2023-01-27T10:36:42.954Z,20.90
2023-01-27T10:38:44.278Z,20.84
2023-01-27T10:40:45.631Z,20.81
2023-01-27T10:42:46.945Z,20.78
2023-01-27T10:44:48.272Z,20.74
2023-01-27T10:46:49.774Z,20.72
2023-01-27T10:48:51.127Z,20.68
2023-01-27T10:50:52.422Z,20.64
2023-01-27T10:52:53.754Z,20.63
2023-01-27T10:54:55.074Z,20.59
2023-01-27T10:56:56.410Z,20.57
2023-01-27T10:58:57.729Z,20.50
2023-01-27T11:01:20.294Z,20.48
2023-01-27T11:03:21.731Z,20.47
2023-01-27T11:05:23.020Z,20.44
2023-01-27T11:07:24.352Z,20.42
2023-01-27T11:09:25.727Z,20.40
2023-01-27T11:11:45.265Z,20.40
2023-01-27T11:13:46.617Z,20.42
2023-01-27T11:15:47.896Z,20.44
2023-01-27T11:17:49.239Z,20.45
2023-01-27T11:19:50.540Z,20.50
2023-01-27T11:22:06.262Z,20.55
2023-01-27T11:24:08.776Z,20.64
2023-01-27T11:26:10.063Z,20.70
2023-01-27T11:28:11.386Z,20.76
2023-01-27T11:30:13.137Z,20.82
2023-01-27T11:32:14.694Z,20.82
2023-01-27T11:34:16.042Z,20.86
2023-01-27T11:36:17.335Z,20.91
2023-01-27T11:38:18.655Z,20.90
2023-01-27T11:40:19.997Z,20.95
2023-01-27T11:42:21.602Z,20.96
2023-01-27T11:44:22.908Z,21.00
2023-01-27T11:46:24.275Z,21.01
2023-01-27T11:48:25.643Z,21.00
2023-01-27T11:50:27.359Z,20.99
2023-01-27T11:52:29.145Z,21.00
2023-01-27T11:54:30.536Z,21.01
2023-01-27T11:56:31.880Z,20.95
2023-01-27T11:58:33.211Z,20.92
2023-01-27T12:00:34.557Z,20.86
2023-01-27T12:02:35.905Z,20.84
2023-01-27T12:04:37.311Z,20.81
2023-01-27T12:06:38.690Z,20.75
2023-01-27T12:08:40.133Z,20.70
2023-01-27T12:10:44.448Z,20.65
2023-01-27T12:12:45.739Z,20.62
2023-01-27T12:14:47.035Z,20.57
2023-01-27T12:16:48.368Z,20.57
2023-01-27T12:18:49.833Z,20.53
2023-01-27T12:20:51.608Z,20.49
2023-01-27T12:22:52.989Z,20.46
2023-01-27T12:24:54.314Z,20.45
2023-01-27T12:26:55.766Z,20.43
2023-01-27T12:28:57.087Z,20.42
2023-01-27T12:30:58.411Z,20.41
2023-01-27T12:32:59.731Z,20.39
2023-01-27T12:35:01.066Z,20.40
2023-01-27T12:37:02.353Z,20.41
2023-01-27T12:39:03.658Z,20.42
2023-01-27T12:41:05.046Z,20.45
2023-01-27T12:43:06.343Z,20.50
2023-01-27T12:45:07.662Z,20.56
2023-01-27T12:47:08.947Z,20.61
2023-01-27T12:49:10.249Z,20.65
2023-01-27T12:51:11.736Z,20.70
2023-01-27T12:53:13.029Z,20.77
2023-01-27T12:55:14.317Z,20.80
2023-01-27T12:57:17.421Z,20.85
2023-01-27T12:59:18.829Z,20.88
2023-01-27T13:01:20.177Z,20.90
2023-01-27T13:03:21.722Z,20.89
2023-01-27T13:05:23.026Z,20.93
2023-01-27T13:07:24.374Z,20.96
2023-01-27T13:09:26.648Z,20.98
2023-01-27T13:11:27.951Z,20.97
2023-01-27T13:13:29.334Z,21.00
2023-01-27T13:15:34.052Z,20.98
2023-01-27T13:17:35.363Z,20.96
2023-01-27T13:19:40.965Z,20.95
2023-01-27T13:21:42.320Z,20.90
2023-01-27T13:23:46.737Z,20.86
2023-01-27T13:25:48.279Z,20.82
2023-01-27T13:27:49.621Z,20.79
2023-01-27T13:29:50.965Z,18.10
2023-01-27T13:31:52.347Z,18.17
2023-01-27T13:33:53.663Z,19.37
2023-01-27T13:35:54.982Z,20.07
2023-01-27T13:37:56.270Z,20.17
2023-01-27T13:39:57.624Z,20.20
2023-01-27T13:41:58.926Z,20.18
2023-01-27T13:44:00.328Z,20.13
2023-01-27T13:46:01.626Z,20.07
2023-01-27T13:48:03.065Z,20.00
2023-01-27T13:50:04.706Z,20.24
2023-01-27T13:52:06.053Z,20.87
2023-01-27T13:54:07.406Z,21.48
2023-01-27T13:56:08.774Z,21.60
2023-01-27T13:58:12.748Z,21.70
2023-01-27T14:00:14.462Z,21.81
2023-01-27T14:02:15.872Z,22.01
2023-01-27T14:04:17.298Z,22.15
2023-01-27T14:06:18.602Z,22.19
2023-01-27T14:08:19.903Z,22.18
2023-01-27T14:10:21.233Z,22.29
2023-01-27T14:12:22.530Z,22.25
2023-01-27T14:14:23.824Z,22.24
2023-01-27T14:16:25.108Z,22.30
2023-01-27T14:18:26.541Z,22.51
2023-01-27T14:20:27.873Z,22.48
2023-01-27T14:22:29.342Z,22.34
2023-01-27T14:24:30.911Z,22.48
2023-01-27T14:26:32.273Z,22.53
2023-01-27T14:28:36.331Z,22.20
2023-01-27T14:30:37.691Z,21.80
2023-01-27T14:32:39.013Z,21.59
2023-01-27T14:34:43.298Z,21.44
2023-01-27T14:36:44.866Z,21.30
2023-01-27T14:38:48.233Z,21.86
2023-01-27T14:40:49.638Z,22.13
2023-01-27T14:42:50.970Z,21.74
2023-01-27T14:45:07.026Z,21.40
2023-01-27T14:47:08.343Z,21.19
2023-01-27T14:49:09.672Z,21.08
2023-01-27T14:51:12.084Z,21.00
2023-01-27T14:53:13.531Z,20.94
2023-01-27T14:55:15.811Z,20.90
2023-01-27T14:57:23.054Z,20.86
2023-01-27T14:59:24.343Z,20.82
2023-01-27T15:01:25.673Z,20.81
2023-01-27T15:03:27.971Z,20.81
2023-01-27T15:05:29.262Z,20.80
2023-01-27T15:07:30.554Z,20.78
2023-01-27T15:09:32.483Z,20.80
2023-01-27T15:11:37.351Z,20.82
2023-01-27T15:13:38.785Z,21.10
2023-01-27T15:15:42.034Z,21.60
2023-01-27T15:17:46.172Z,21.87
2023-01-27T15:19:47.479Z,21.88
2023-01-27T15:21:48.819Z,21.95
2023-01-27T15:23:50.183Z,22.09
2023-01-27T15:25:51.521Z,22.14
2023-01-27T15:27:52.824Z,22.09
2023-01-27T15:29:54.190Z,21.93
2023-01-27T15:32:01.302Z,21.89
2023-01-27T15:34:02.647Z,21.86
2023-01-27T15:36:03.938Z,21.85
2023-01-27T15:38:05.291Z,21.83
2023-01-27T15:40:06.581Z,21.78
2023-01-27T15:42:09.819Z,21.75
2023-01-27T15:44:13.771Z,21.70
2023-01-27T15:46:15.068Z,21.68
2023-01-27T15:48:16.366Z,21.66
2023-01-27T15:50:17.658Z,21.60
2023-01-27T15:52:18.976Z,21.58
2023-01-27T15:54:20.288Z,21.51
2023-01-27T15:56:21.622Z,21.47
2023-01-27T15:58:22.972Z,21.41
2023-01-27T16:00:24.299Z,21.35
2023-01-27T16:02:25.689Z,21.32
2023-01-27T16:04:27.052Z,21.27
2023-01-27T16:06:28.367Z,21.24
2023-01-27T16:08:29.703Z,21.20
2023-01-27T16:10:31.022Z,21.17
2023-01-27T16:12:32.410Z,21.14
2023-01-27T16:14:34.053Z,21.13
2023-01-27T16:16:35.521Z,21.11
2023-01-27T16:18:39.531Z,21.10
2023-01-27T16:20:40.874Z,21.08
2023-01-27T16:22:42.175Z,21.04
2023-01-27T16:24:43.470Z,21.01
2023-01-27T16:26:47.546Z,21.01
2023-01-27T16:28:48.842Z,21.02
2023-01-27T16:30:50.169Z,21.03
2023-01-27T16:32:54.559Z,21.02
2023-01-27T16:34:58.959Z,21.06
2023-01-27T16:37:00.253Z,21.07
2023-01-27T16:39:02.185Z,21.10
2023-01-27T16:41:03.681Z,21.12
2023-01-27T16:43:06.171Z,21.16
2023-01-27T16:45:09.605Z,21.22
2023-01-27T16:47:16.730Z,21.27
2023-01-27T16:49:18.681Z,21.34
2023-01-27T16:51:20.037Z,21.36
2023-01-27T16:53:21.410Z,21.42
2023-01-27T16:55:22.718Z,21.49
2023-01-27T16:57:24.121Z,21.52
2023-01-27T16:59:26.747Z,21.53
2023-01-27T17:01:28.174Z,21.65
2023-01-27T17:03:29.556Z,21.54
2023-01-27T17:05:30.997Z,21.88
2023-01-27T17:07:32.523Z,22.36
2023-01-27T17:09:35.430Z,22.84
2023-01-27T17:11:36.813Z,22.93
2023-01-27T17:13:41.244Z,22.92
2023-01-27T17:15:43.437Z,22.81
2023-01-27T17:17:47.828Z,22.75
2023-01-27T17:19:49.169Z,23.02
2023-01-27T17:21:50.463Z,22.88
2023-01-27T17:23:51.807Z,22.77
2023-01-27T17:25:55.998Z,22.48
2023-01-27T17:27:57.381Z,22.36
2023-01-27T17:29:58.718Z,22.41
2023-01-27T17:32:00.112Z,22.39
2023-01-27T17:34:02.250Z,22.29
2023-01-27T17:36:03.574Z,22.40
2023-01-27T17:38:10.695Z,22.31
2023-01-27T17:40:12.023Z,22.42
2023-01-27T17:42:13.363Z,22.31
2023-01-27T17:44:14.740Z,22.33
2023-01-27T17:46:16.398Z,22.17
2023-01-27T17:48:17.934Z,22.12
2023-01-27T17:50:19.229Z,22.22
2023-01-27T17:52:21.073Z,22.14
2023-01-27T17:54:22.423Z,22.24
2023-01-27T17:56:23.783Z,22.47
2023-01-27T17:58:25.127Z,22.30
2023-01-27T18:00:29.471Z,22.22
2023-01-27T18:02:30.873Z,22.06
2023-01-27T18:04:32.231Z,21.92
2023-01-27T18:06:33.572Z,21.90
2023-01-27T18:08:35.180Z,21.80
2023-01-27T18:10:39.440Z,21.27
2023-01-27T18:12:40.762Z,21.43
2023-01-27T18:14:42.093Z,21.80
2023-01-27T18:16:43.393Z,22.03
2023-01-27T18:18:44.774Z,21.14
2023-01-27T18:20:46.118Z,22.12
2023-01-27T18:22:47.734Z,22.22
2023-01-27T18:24:49.136Z,22.29
2023-01-27T18:26:50.578Z,22.33
2023-01-27T18:28:51.995Z,21.99
2023-01-27T18:30:53.365Z,21.87
2023-01-27T18:32:54.726Z,22.17
2023-01-27T18:34:56.127Z,22.41
2023-01-27T18:36:57.672Z,22.51
2023-01-27T18:38:58.999Z,22.69
2023-01-27T18:41:00.379Z,22.63
2023-01-27T18:43:02.205Z,22.70
2023-01-27T18:45:09.594Z,22.81
2023-01-27T18:47:10.926Z,22.81
2023-01-27T18:49:12.262Z,22.89
2023-01-27T18:51:13.688Z,22.94
2023-01-27T18:53:14.996Z,22.82
2023-01-27T18:55:19.624Z,22.80
2023-01-27T18:57:20.926Z,22.60
2023-01-27T18:59:22.254Z,22.79
2023-01-27T19:01:24.021Z,23.01
2023-01-27T19:03:25.346Z,22.88
2023-01-27T19:05:26.689Z,22.55
2023-01-27T19:07:28.044Z,22.02
2023-01-27T19:09:29.373Z,21.69
2023-01-27T19:11:32.876Z,21.48
2023-01-27T19:13:35.003Z,21.70
2023-01-27T19:15:39.703Z,21.78
2023-01-27T19:17:41.051Z,21.77
2023-01-27T19:19:45.265Z,21.71
2023-01-27T19:21:46.620Z,21.72
2023-01-27T19:23:49.526Z,21.73
2023-01-27T19:25:50.925Z,22.03
2023-01-27T19:27:52.509Z,22.17
2023-01-27T19:30:00.139Z,22.05
2023-01-27T19:32:03.715Z,22.00
2023-01-27T19:34:08.002Z,21.88
2023-01-27T19:36:12.176Z,21.90
2023-01-27T19:38:13.501Z,21.57
2023-01-27T19:40:14.817Z,21.34
2023-01-27T19:42:16.288Z,21.21
2023-01-27T19:44:20.597Z,21.18
2023-01-27T19:46:21.967Z,21.17
2023-01-27T19:48:23.282Z,21.18
2023-01-27T19:50:24.610Z,21.21
2023-01-27T19:52:29.258Z,21.27
2023-01-27T19:54:30.564Z,21.69
2023-01-27T19:56:32.533Z,22.05
2023-01-27T19:58:33.861Z,22.36
2023-01-27T20:00:35.181Z,22.41
2023-01-27T20:02:36.478Z,22.47
2023-01-27T20:04:38.798Z,22.38
2023-01-27T20:06:40.109Z,22.28
2023-01-27T20:08:41.405Z,22.27
2023-01-27T20:10:42.713Z,22.14
2023-01-27T20:12:44.363Z,22.07
2023-01-27T20:14:46.335Z,22.07
2023-01-27T20:16:47.734Z,22.06
2023-01-27T20:18:52.030Z,22.09
2023-01-27T20:20:53.349Z,22.08
2023-01-27T20:22:54.699Z,22.14
2023-01-27T20:24:56.069Z,22.17
2023-01-27T20:26:58.556Z,22.18
2023-01-27T20:28:59.876Z,22.18
2023-01-27T20:31:01.312Z,22.21
2023-01-27T20:33:02.948Z,22.27
2023-01-27T20:35:04.241Z,21.92
2023-01-27T20:37:05.541Z,21.64
2023-01-27T20:39:06.846Z,21.64
2023-01-27T20:41:08.177Z,21.84
2023-01-27T20:43:09.508Z,22.04
2023-01-27T20:45:10.844Z,22.08
2023-01-27T20:47:13.360Z,22.13
2023-01-27T20:49:14.697Z,22.19
2023-01-27T20:51:16.002Z,22.14
2023-01-27T20:53:22.975Z,22.11
2023-01-27T20:55:24.302Z,22.14
2023-01-27T20:57:27.327Z,22.14
2023-01-27T20:59:28.700Z,22.22
2023-01-27T21:01:30.073Z,22.21
2023-01-27T21:03:31.374Z,22.31
2023-01-27T21:05:34.355Z,22.44
2023-01-27T21:07:35.706Z,22.43
2023-01-27T21:09:37.005Z,22.36
2023-01-27T21:11:38.340Z,22.29
2023-01-27T21:13:39.667Z,22.23
2023-01-27T21:15:41.008Z,22.24
2023-01-27T21:17:42.344Z,22.22
2023-01-27T21:19:43.765Z,22.23
2023-01-27T21:21:46.549Z,22.25
2023-01-27T21:23:47.856Z,22.29
2023-01-27T21:25:49.165Z,22.35
2023-01-27T21:27:50.460Z,21.89
2023-01-27T21:29:52.957Z,22.05
2023-01-27T21:31:54.372Z,22.17
2023-01-27T21:33:55.715Z,22.22
2023-01-27T21:35:57.062Z,22.26
2023-01-27T21:37:58.436Z,22.30
2023-01-27T21:39:59.771Z,22.26
2023-01-27T21:42:01.116Z,22.25
2023-01-27T21:44:21.019Z,22.24
2023-01-27T21:46:22.356Z,22.32
2023-01-27T21:48:23.687Z,22.32
2023-01-27T21:50:25.046Z,22.27
2023-01-27T21:52:26.654Z,22.28
2023-01-27T21:54:27.953Z,22.42
2023-01-27T21:56:35.078Z,22.31
2023-01-27T21:58:36.378Z,22.26
2023-01-27T22:00:37.819Z,22.27
2023-01-27T22:02:39.280Z,22.12
2023-01-27T22:04:40.627Z,22.15
2023-01-27T22:06:41.963Z,22.19
2023-01-27T22:08:43.261Z,22.22
2023-01-27T22:10:44.636Z,22.33
2023-01-27T22:12:45.999Z,22.25
2023-01-27T22:14:47.311Z,22.20
2023-01-27T22:16:48.664Z,22.23
2023-01-27T22:18:49.958Z,22.24
2023-01-27T22:20:51.286Z,22.18
2023-01-27T22:22:52.658Z,22.23
2023-01-27T22:24:53.978Z,22.10
2023-01-27T22:26:55.278Z,22.26
2023-01-27T22:28:56.611Z,22.05
2023-01-27T22:30:57.924Z,21.68
2023-01-27T22:33:01.578Z,21.48
2023-01-27T22:35:02.925Z,21.86
2023-01-27T22:37:04.235Z,22.00
2023-01-27T22:39:05.573Z,22.25
2023-01-27T22:41:06.866Z,22.31
2023-01-27T22:43:10.375Z,22.33
2023-01-27T22:45:11.736Z,22.45
2023-01-27T22:47:13.154Z,22.41
2023-01-27T22:49:14.451Z,22.49
2023-01-27T22:51:15.739Z,22.31
2023-01-27T22:53:17.080Z,22.41
2023-01-27T22:55:20.265Z,22.36
2023-01-27T22:57:21.865Z,22.33
2023-01-27T22:59:23.209Z,22.31
2023-01-27T23:01:24.580Z,22.37
2023-01-27T23:03:25.928Z,22.38
2023-01-27T23:05:27.227Z,22.32
2023-01-27T23:07:28.524Z,22.41
2023-01-27T23:09:29.835Z,22.38
2023-01-27T23:11:31.196Z,22.41
2023-01-27T23:13:32.491Z,22.41
2023-01-27T23:15:33.800Z,22.43
2023-01-27T23:17:35.143Z,22.42
2023-01-27T23:19:36.461Z,22.57
2023-01-27T23:21:37.738Z,22.47
2023-01-27T23:23:39.125Z,21.85
2023-01-27T23:25:40.462Z,21.86
2023-01-27T23:27:41.786Z,22.07
2023-01-27T23:29:43.118Z,22.10
2023-01-27T23:31:44.519Z,22.29
2023-01-27T23:33:47.962Z,22.25
2023-01-27T23:35:49.350Z,22.23
2023-01-27T23:37:50.662Z,22.22
2023-01-27T23:39:52.270Z,22.16
2023-01-27T23:41:53.569Z,22.19
2023-01-27T23:43:57.981Z,22.27
2023-01-27T23:45:59.347Z,22.22
2023-01-27T23:48:00.678Z,22.20
2023-01-27T23:50:02.284Z,22.23
2023-01-27T23:52:03.574Z,22.28
2023-01-27T23:54:04.863Z,22.35
2023-01-27T23:56:06.281Z,22.37
2023-01-27T23:58:07.592Z,22.60
